Time;durP1;ratioP1;P1;durP2;ratioP2;P2;SDS_P1;SDS_P2;PMS_P1;PMS_P2;Temp;Humidity;BMP_temperature;BMP_pressure;BME280_temperature;BME280_humidity;BME280_pressure;Samples;Min_cycle;Max_cycle;Signal;HPM_P1;HPM_P2
2021/08/15 00:00:42;;;;;;;;;4.25;3.00;;;;;;;;4988804;28;8793;-85
2021/08/15 00:03:11;;;;;;;;;3.00;3.00;;;;;;;;5006627;28;8865;-86
2021/08/15 00:05:38;;;;;;;;;4.00;4.00;;;;;;;;5006905;28;8981;-85
2021/08/15 00:11:25;;;;;;;;;3.00;3.00;;;;;;;;4961916;28;8840;-85
2021/08/15 00:19:46;;;;;;;;;3.75;2.75;;;;;;;;5006088;28;8840;-86
2021/08/15 00:22:21;;;;;;;;;3.50;3.50;;;;;;;;5007417;28;8856;-85
2021/08/15 00:24:49;;;;;;;;;3.00;3.00;;;;;;;;4957360;28;9042;-86
2021/08/15 00:29:59;;;;;;;;;4.00;3.50;;;;;;;;4899528;28;8915;-86
2021/08/15 00:32:26;;;;;;;;;2.00;2.00;;;;;;;;5006396;28;8956;-85
2021/08/15 00:34:53;;;;;;;;;4.00;4.00;;;;;;;;5006321;28;8848;-85
2021/08/15 00:37:21;;;;;;;;;3.25;3.25;;;;;;;;5006553;28;8986;-86
2021/08/15 00:39:48;;;;;;;;;5.00;3.00;;;;;;;;5005926;28;8852;-86
2021/08/15 00:42:17;;;;;;;;;3.75;3.00;;;;;;;;4974775;28;8884;-86
2021/08/15 00:44:45;;;;;;;;;3.00;3.00;;;;;;;;5006181;28;8880;-85
2021/08/15 00:47:14;;;;;;;;;5.25;4.00;;;;;;;;5005074;28;9028;-86
2021/08/15 00:53:04;;;;;;;;;5.00;5.00;;;;;;;;5001401;28;8836;-86
2021/08/15 00:55:32;;;;;;;;;4.00;2.75;;;;;;;;5005011;28;8975;-86
2021/08/15 00:58:01;;;;;;;;;3.50;3.50;;;;;;;;5006827;28;8861;-86
2021/08/15 01:00:28;;;;;;;;;4.00;4.00;;;;;;;;4992364;28;8780;-86
2021/08/15 01:02:55;;;;;;;;;3.25;3.00;;;;;;;;5006408;28;9649;-86
2021/08/15 01:05:23;;;;;;;;;4.25;4.00;;;;;;;;5006261;28;8882;-86
2021/08/15 01:07:50;;;;;;;;;4.75;4.25;;;;;;;;4972390;28;8884;-85
2021/08/15 01:10:18;;;;;;;;;3.00;3.00;;;;;;;;5006485;28;8856;-86
2021/08/15 01:12:47;;;;;;;;;2.25;2.25;;;;;;;;5005576;28;9716;-86
2021/08/15 01:15:17;;;;;;;;;3.50;3.00;;;;;;;;5006953;28;8874;-86
2021/08/15 01:17:45;;;;;;;;;4.50;4.25;;;;;;;;5005365;28;8903;-86
2021/08/15 01:20:13;;;;;;;;;6.00;4.25;;;;;;;;5006466;28;8876;-86
2021/08/15 01:22:42;;;;;;;;;3.50;3.50;;;;;;;;4988481;28;8963;-86
2021/08/15 01:25:10;;;;;;;;;4.50;4.50;;;;;;;;4978327;28;8863;-86
2021/08/15 01:27:40;;;;;;;;;4.50;2.75;;;;;;;;4986605;28;8991;-85
2021/08/15 01:30:11;;;;;;;;;3.50;3.50;;;;;;;;5004954;28;8884;-86
2021/08/15 01:32:40;;;;;;;;;4.00;4.00;;;;;;;;5005931;28;8871;-86
2021/08/15 01:35:08;;;;;;;;;3.25;3.25;;;;;;;;4987087;28;8919;-86
2021/08/15 01:37:36;;;;;;;;;3.25;3.25;;;;;;;;5005994;28;9003;-86
2021/08/15 01:40:08;;;;;;;;;2.75;2.75;;;;;;;;5004597;28;8984;-85
2021/08/15 01:47:42;;;;;;;;;2.25;2.25;;;;;;;;4984869;28;9024;-86
2021/08/15 01:50:10;;;;;;;;;3.00;2.25;;;;;;;;4985476;28;8879;-86
2021/08/15 01:52:38;;;;;;;;;6.25;4.00;;;;;;;;4984972;28;8964;-86
2021/08/15 01:55:07;;;;;;;;;3.75;3.00;;;;;;;;4985999;28;8861;-85
2021/08/15 01:57:34;;;;;;;;;2.75;2.75;;;;;;;;4963794;28;8888;-86
2021/08/15 02:00:01;;;;;;;;;4.00;4.00;;;;;;;;4986029;28;8881;-85
2021/08/15 02:02:29;;;;;;;;;4.75;2.75;;;;;;;;4966559;28;8821;-86
2021/08/15 02:04:58;;;;;;;;;4.00;4.00;;;;;;;;4985875;28;8865;-85
2021/08/15 02:07:26;;;;;;;;;3.00;3.00;;;;;;;;4984965;28;8930;-85
2021/08/15 02:09:53;;;;;;;;;3.25;3.25;;;;;;;;4984573;28;8927;-86
2021/08/15 02:12:21;;;;;;;;;3.75;3.75;;;;;;;;4968615;28;8884;-86
2021/08/15 02:15:00;;;;;;;;;5.75;4.00;;;;;;;;4984627;28;8880;-86
2021/08/15 02:17:27;;;;;;;;;3.00;3.00;;;;;;;;4985983;28;8877;-86
2021/08/15 02:22:40;;;;;;;;;3.50;3.50;;;;;;;;4926081;28;8899;-86
2021/08/15 02:25:09;;;;;;;;;4.00;4.00;;;;;;;;4985843;28;9008;-86
2021/08/15 02:33:54;;;;;;;;;2.75;2.75;;;;;;;;4925356;29;8853;-86
2021/08/15 02:36:21;;;;;;;;;6.00;4.50;;;;;;;;4980955;28;8911;-86
2021/08/15 02:38:50;;;;;;;;;5.75;4.50;;;;;;;;4985257;28;8858;-86
2021/08/15 02:41:17;;;;;;;;;2.25;2.25;;;;;;;;4966997;28;8923;-86
2021/08/15 02:43:45;;;;;;;;;4.00;4.00;;;;;;;;4985312;28;8905;-86
2021/08/15 02:46:12;;;;;;;;;4.00;4.00;;;;;;;;4966130;28;9663;-87
2021/08/15 02:48:39;;;;;;;;;3.00;3.00;;;;;;;;4985013;28;8915;-86
2021/08/15 02:51:07;;;;;;;;;3.25;3.25;;;;;;;;4984503;28;8877;-86
2021/08/15 02:53:34;;;;;;;;;4.75;4.75;;;;;;;;4985938;28;8873;-86
2021/08/15 02:56:03;;;;;;;;;3.00;3.00;;;;;;;;4985384;28;9612;-86
2021/08/15 02:58:30;;;;;;;;;6.75;6.75;;;;;;;;4985050;28;8876;-86
2021/08/15 03:00:57;;;;;;;;;5.00;4.00;;;;;;;;4985203;28;8769;-86
2021/08/15 03:03:24;;;;;;;;;4.00;4.00;;;;;;;;4985869;28;9673;-86
2021/08/15 03:05:52;;;;;;;;;5.00;5.00;;;;;;;;4988826;28;8893;-86
2021/08/15 03:08:19;;;;;;;;;3.50;3.50;;;;;;;;4986839;28;8903;-86
2021/08/15 03:10:46;;;;;;;;;3.00;3.00;;;;;;;;4988173;28;9554;-86
2021/08/15 03:13:15;;;;;;;;;4.00;4.00;;;;;;;;4988095;28;8887;-87
2021/08/15 03:15:43;;;;;;;;;1.25;1.00;;;;;;;;4987354;28;8921;-86
2021/08/15 03:18:12;;;;;;;;;5.00;5.00;;;;;;;;4988472;28;8897;-86
2021/08/15 03:30:30;;;;;;;;;5.00;4.75;;;;;;;;4927949;28;8847;-86
2021/08/15 03:33:38;;;;;;;;;3.00;3.00;;;;;;;;4918788;29;9800;-86
2021/08/15 03:36:06;;;;;;;;;2.00;2.00;;;;;;;;4988660;28;8900;-86
2021/08/15 03:38:33;;;;;;;;;3.50;3.50;;;;;;;;4986973;28;8899;-87
2021/08/15 03:41:40;;;;;;;;;4.25;4.25;;;;;;;;4989078;28;8881;-86
2021/08/15 03:44:07;;;;;;;;;5.25;5.25;;;;;;;;4975709;28;8884;-86
2021/08/15 03:46:36;;;;;;;;;5.00;4.50;;;;;;;;4956729;28;8909;-86
2021/08/15 03:49:04;;;;;;;;;3.00;3.00;;;;;;;;4988349;28;8873;-86
2021/08/15 03:51:31;;;;;;;;;3.75;3.75;;;;;;;;4986832;28;9067;-86
2021/08/15 03:53:59;;;;;;;;;7.50;5.00;;;;;;;;4988764;28;8876;-86
2021/08/15 03:56:26;;;;;;;;;4.75;4.75;;;;;;;;4987002;28;9059;-86
2021/08/15 03:58:53;;;;;;;;;5.25;5.00;;;;;;;;4971238;28;8877;-87
2021/08/15 04:01:20;;;;;;;;;4.50;4.50;;;;;;;;4987297;28;8806;-86
2021/08/15 04:03:49;;;;;;;;;4.50;3.25;;;;;;;;4970557;28;8889;-86
2021/08/15 04:06:22;;;;;;;;;4.25;4.25;;;;;;;;4987259;28;9003;-86
2021/08/15 04:08:51;;;;;;;;;3.25;3.25;;;;;;;;4986302;28;8880;-86
2021/08/15 04:14:00;;;;;;;;;4.00;4.00;;;;;;;;4968952;28;8884;-86
2021/08/15 04:16:28;;;;;;;;;4.00;3.50;;;;;;;;4987425;28;8881;-86
2021/08/15 04:18:57;;;;;;;;;3.00;3.00;;;;;;;;4986379;28;8889;-86
2021/08/15 04:21:25;;;;;;;;;6.00;3.25;;;;;;;;4986702;28;8896;-86
2021/08/15 04:23:52;;;;;;;;;5.00;4.50;;;;;;;;4987491;28;8897;-86
2021/08/15 04:26:22;;;;;;;;;4.25;4.25;;;;;;;;4969399;28;8978;-85
2021/08/15 04:29:09;;;;;;;;;7.25;4.75;;;;;;;;4986855;28;8873;-86
2021/08/15 04:31:36;;;;;;;;;9.75;5.00;;;;;;;;4986090;28;8944;-86
2021/08/15 04:34:05;;;;;;;;;4.75;4.75;;;;;;;;4970135;28;9026;-86
2021/08/15 04:36:32;;;;;;;;;4.00;4.00;;;;;;;;4986439;28;8888;-86
2021/08/15 04:39:00;;;;;;;;;4.00;4.00;;;;;;;;4986032;28;8911;-86
2021/08/15 04:41:27;;;;;;;;;4.50;4.25;;;;;;;;4987434;28;8873;-86
2021/08/15 04:43:54;;;;;;;;;5.00;4.25;;;;;;;;4987270;28;8919;-86
2021/08/15 04:46:22;;;;;;;;;5.00;3.25;;;;;;;;4969663;28;8877;-86
2021/08/15 04:48:49;;;;;;;;;5.75;4.00;;;;;;;;4986498;28;8873;-86
2021/08/15 04:51:18;;;;;;;;;5.00;4.50;;;;;;;;4970626;28;8873;-86
2021/08/15 04:53:47;;;;;;;;;5.00;3.75;;;;;;;;4967696;28;8869;-87
2021/08/15 04:56:36;;;;;;;;;2.50;2.50;;;;;;;;4985953;28;8888;-86
2021/08/15 04:59:03;;;;;;;;;2.50;2.50;;;;;;;;4966969;28;8995;-87
2021/08/15 05:04:53;;;;;;;;;4.75;4.00;;;;;;;;4986022;28;8840;-85
2021/08/15 05:07:22;;;;;;;;;2.75;2.75;;;;;;;;4976497;28;8979;-86
2021/08/15 05:09:51;;;;;;;;;2.75;2.25;;;;;;;;4967124;28;9539;-87
2021/08/15 05:12:18;;;;;;;;;3.50;3.50;;;;;;;;4987097;28;8857;-86
2021/08/15 05:21:01;;;;;;;;;4.25;3.00;;;;;;;;4933011;29;8870;-86
2021/08/15 05:23:30;;;;;;;;;4.00;4.00;;;;;;;;4914932;29;9016;-87
2021/08/15 05:26:00;;;;;;;;;5.00;5.00;;;;;;;;4939117;28;8857;-87
2021/08/15 05:50:23;;;;;;;;;4.00;4.00;;;;;;;;6053641;23;8834;-87
2021/08/15 05:52:51;;;;;;;;;4.75;4.75;;;;;;;;4986215;28;8971;-86
2021/08/15 05:55:19;;;;;;;;;3.75;3.75;;;;;;;;4968485;28;8869;-86
2021/08/15 05:57:47;;;;;;;;;6.75;6.25;;;;;;;;4985238;28;8943;-86
2021/08/15 06:00:15;;;;;;;;;4.75;4.75;;;;;;;;4968405;28;8884;-86
2021/08/15 06:02:43;;;;;;;;;6.50;6.50;;;;;;;;4984985;28;8880;-86
2021/08/15 06:05:11;;;;;;;;;6.00;4.25;;;;;;;;4986347;28;8971;-87
2021/08/15 06:07:42;;;;;;;;;5.75;4.00;;;;;;;;4983943;28;8881;-87
2021/08/15 06:10:56;;;;;;;;;5.25;4.50;;;;;;;;4985959;28;8884;-87
2021/08/15 06:13:24;;;;;;;;;4.75;4.75;;;;;;;;4973569;28;9067;-86
2021/08/15 06:22:43;;;;;;;;;5.00;5.00;;;;;;;;4961349;28;8857;-85
2021/08/15 06:25:12;;;;;;;;;3.75;3.75;;;;;;;;4984045;28;8877;-86
2021/08/15 06:27:52;;;;;;;;;5.00;5.00;;;;;;;;4985265;28;8901;-86
2021/08/15 06:30:36;;;;;;;;;5.50;5.50;;;;;;;;4984656;28;8877;-87
2021/08/15 06:33:05;;;;;;;;;5.25;5.25;;;;;;;;4967658;28;8907;-86
2021/08/15 06:35:34;;;;;;;;;6.75;4.75;;;;;;;;4968310;28;8884;-86
2021/08/15 06:38:11;;;;;;;;;4.75;4.75;;;;;;;;4986611;28;8901;-87
2021/08/15 06:40:38;;;;;;;;;9.75;6.75;;;;;;;;4940551;28;8881;-86
2021/08/15 06:43:06;;;;;;;;;4.75;4.50;;;;;;;;4988954;28;8869;-86
2021/08/15 06:45:34;;;;;;;;;5.00;5.00;;;;;;;;4972597;28;9007;-86
2021/08/15 06:48:01;;;;;;;;;4.00;4.00;;;;;;;;4972216;28;8896;-86
2021/08/15 06:50:28;;;;;;;;;5.67;5.67;;;;;;;;4988578;28;8901;-86
2021/08/15 06:52:56;;;;;;;;;4.25;4.25;;;;;;;;4989447;28;9719;-87
2021/08/15 06:59:14;;;;;;;;;6.25;5.50;;;;;;;;4978462;28;8845;-87
2021/08/15 07:01:41;;;;;;;;;7.50;7.00;;;;;;;;4988038;28;8848;-87
2021/08/15 07:04:09;;;;;;;;;5.00;5.00;;;;;;;;4987337;28;8880;-87
2021/08/15 07:06:36;;;;;;;;;5.00;5.00;;;;;;;;4985951;28;9001;-87
2021/08/15 07:09:44;;;;;;;;;5.25;4.00;;;;;;;;4988194;28;9851;-87
2021/08/15 07:20:48;;;;;;;;;5.75;5.75;;;;;;;;5452852;23;9537;-87
2021/08/15 07:23:44;;;;;;;;;6.50;5.75;;;;;;;;4985540;28;8992;-87
2021/08/15 07:26:33;;;;;;;;;6.75;6.75;;;;;;;;4976276;28;8991;-87
2021/08/15 07:29:03;;;;;;;;;6.75;5.00;;;;;;;;4986106;28;8964;-87
2021/08/15 07:31:33;;;;;;;;;4.80;4.80;;;;;;;;4983669;28;8846;-85
2021/08/15 07:34:01;;;;;;;;;4.75;4.75;;;;;;;;4983985;28;8865;-86
2021/08/15 07:37:05;;;;;;;;;6.50;4.50;;;;;;;;4985647;28;9134;-87
2021/08/15 07:39:32;;;;;;;;;8.00;6.00;;;;;;;;4986869;28;8885;-88
2021/08/15 07:44:55;;;;;;;;;4.00;4.00;;;;;;;;4919895;28;9651;-86
2021/08/15 07:47:22;;;;;;;;;3.60;3.60;;;;;;;;4987910;28;8866;-87
2021/08/15 07:49:49;;;;;;;;;5.00;5.00;;;;;;;;4986029;28;8888;-85
2021/08/15 07:52:18;;;;;;;;;6.20;6.20;;;;;;;;4985020;28;8889;-83
2021/08/15 07:54:45;;;;;;;;;8.20;5.00;;;;;;;;4986063;28;8975;-86
2021/08/15 07:57:13;;;;;;;;;5.00;5.00;;;;;;;;4985509;28;8881;-82
2021/08/15 07:59:40;;;;;;;;;5.20;5.20;;;;;;;;4985662;28;8908;-87
2021/08/15 08:02:08;;;;;;;;;5.40;5.40;;;;;;;;4985448;28;8841;-83
2021/08/15 08:04:37;;;;;;;;;4.40;4.40;;;;;;;;4985596;28;8854;-82
2021/08/15 08:07:07;;;;;;;;;9.20;4.60;;;;;;;;4967199;28;8924;-81
2021/08/15 08:09:36;;;;;;;;;5.00;5.00;;;;;;;;4985692;28;8880;-81
2021/08/15 08:12:03;;;;;;;;;7.60;4.80;;;;;;;;4985073;28;8889;-80
2021/08/15 08:14:31;;;;;;;;;4.80;4.00;;;;;;;;4985004;28;9006;-81
2021/08/15 08:16:58;;;;;;;;;6.40;6.40;;;;;;;;4985774;28;9607;-82
2021/08/15 08:19:25;;;;;;;;;6.00;4.20;;;;;;;;4986841;28;9012;-80
2021/08/15 08:21:52;;;;;;;;;5.00;4.00;;;;;;;;4986856;28;8947;-82
2021/08/15 08:24:20;;;;;;;;;5.40;5.40;;;;;;;;4986289;28;8981;-82
2021/08/15 08:26:49;;;;;;;;;6.00;6.00;;;;;;;;4969592;28;8860;-81
2021/08/15 08:29:16;;;;;;;;;4.60;3.80;;;;;;;;4985032;28;8885;-82
2021/08/15 08:31:43;;;;;;;;;6.80;5.40;;;;;;;;4985399;28;8822;-82
2021/08/15 08:34:10;;;;;;;;;5.80;5.80;;;;;;;;4984709;28;8875;-82
2021/08/15 08:36:38;;;;;;;;;5.00;4.80;;;;;;;;4985252;28;8901;-81
2021/08/15 08:39:06;;;;;;;;;6.00;4.80;;;;;;;;4984286;28;8891;-81
2021/08/15 08:41:34;;;;;;;;;6.60;5.40;;;;;;;;4984098;28;8999;-80
2021/08/15 08:44:04;;;;;;;;;7.00;5.00;;;;;;;;4984031;28;8857;-82
2021/08/15 08:46:31;;;;;;;;;5.40;4.20;;;;;;;;4983786;28;8873;-81
2021/08/15 08:48:59;;;;;;;;;7.60;5.00;;;;;;;;4984554;28;8889;-82
2021/08/15 08:51:26;;;;;;;;;5.00;5.00;;;;;;;;4982174;28;8857;-81
2021/08/15 08:53:54;;;;;;;;;4.40;4.40;;;;;;;;4985621;28;8885;-81
2021/08/15 08:56:22;;;;;;;;;7.20;5.60;;;;;;;;4984073;28;8880;-83
2021/08/15 08:58:50;;;;;;;;;6.00;4.00;;;;;;;;4984247;28;8907;-81
2021/08/15 09:01:19;;;;;;;;;6.00;5.80;;;;;;;;4982772;28;9347;-80
2021/08/15 09:03:47;;;;;;;;;6.40;5.40;;;;;;;;4965848;28;8881;-80
2021/08/15 09:06:21;;;;;;;;;9.20;6.20;;;;;;;;4984436;28;8873;-81
2021/08/15 09:08:49;;;;;;;;;3.40;3.40;;;;;;;;4982914;28;9027;-82
2021/08/15 09:11:18;;;;;;;;;3.80;3.80;;;;;;;;4981438;28;8879;-81
2021/08/15 09:13:59;;;;;;;;;5.40;5.40;;;;;;;;4982528;28;9007;-80
2021/08/15 09:16:52;;;;;;;;;5.00;5.00;;;;;;;;4982717;28;8861;-80
2021/08/15 09:19:31;;;;;;;;;7.60;4.80;;;;;;;;4981965;28;8837;-79
2021/08/15 09:22:21;;;;;;;;;6.40;5.00;;;;;;;;4983984;28;8853;-80
2021/08/15 09:24:54;;;;;;;;;9.60;9.60;;;;;;;;4982285;28;8972;-80
2021/08/15 09:27:24;;;;;;;;;13.40;13.40;;;;;;;;4983866;28;8857;-80
2021/08/15 09:30:23;;;;;;;;;4.80;4.80;;;;;;;;4982934;28;8935;-79
2021/08/15 09:32:56;;;;;;;;;2.80;2.80;;;;;;;;4923771;29;8832;-79
2021/08/15 09:35:29;;;;;;;;;4.60;4.60;;;;;;;;4971015;28;8826;-79
2021/08/15 09:38:01;;;;;;;;;3.40;3.40;;;;;;;;4982179;28;8881;-80
2021/08/15 09:40:31;;;;;;;;;3.20;3.20;;;;;;;;4984142;28;8841;-80
2021/08/15 09:42:59;;;;;;;;;5.20;3.80;;;;;;;;4982997;28;8869;-79
2021/08/15 09:45:44;;;;;;;;;5.40;5.40;;;;;;;;4984648;28;8884;-80
2021/08/15 09:48:26;;;;;;;;;4.60;4.60;;;;;;;;4983114;28;8901;-80
2021/08/15 09:51:14;;;;;;;;;24.00;24.00;;;;;;;;4985262;28;9702;-80
2021/08/15 09:53:55;;;;;;;;;6.60;6.00;;;;;;;;4969404;28;8869;-81
2021/08/15 09:56:32;;;;;;;;;62.00;48.40;;;;;;;;4984335;28;8868;-80
2021/08/15 09:59:12;;;;;;;;;42.80;37.20;;;;;;;;4985184;28;8895;-79
2021/08/15 10:01:40;;;;;;;;;157.75;153.00;;;;;;;;4983689;28;8817;-80
2021/08/15 10:04:09;;;;;;;;;110.67;110.00;;;;;;;;4983805;28;10604;-81
2021/08/15 10:06:37;;;;;;;;;24.20;22.80;;;;;;;;4984917;28;9951;-80
2021/08/15 10:09:05;;;;;;;;;63.40;50.20;;;;;;;;4966638;28;8869;-80
2021/08/15 10:11:34;;;;;;;;;19.40;19.40;;;;;;;;4984835;28;8877;-79
2021/08/15 10:14:01;;;;;;;;;20.00;17.40;;;;;;;;4983954;28;8877;-80
2021/08/15 10:16:30;;;;;;;;;185.75;176.00;;;;;;;;4984860;28;8873;-80
2021/08/15 10:18:58;;;;;;;;;130.00;121.25;;;;;;;;4984050;28;11602;-79
2021/08/15 10:21:27;;;;;;;;;7.60;7.60;;;;;;;;4984284;28;9551;-79
2021/08/15 10:24:07;;;;;;;;;8.00;8.00;;;;;;;;4985530;28;9611;-79
2021/08/15 10:26:46;;;;;;;;;6.00;5.00;;;;;;;;4983490;28;8987;-79
2021/08/15 10:29:37;;;;;;;;;3.80;3.80;;;;;;;;4984629;28;8889;-80
2021/08/15 10:32:09;;;;;;;;;4.60;4.60;;;;;;;;4983768;28;9957;-79
2021/08/15 10:35:12;;;;;;;;;6.60;4.40;;;;;;;;4984520;28;8877;-79
2021/08/15 10:37:41;;;;;;;;;5.25;5.25;;;;;;;;4924554;29;8944;-78
2021/08/15 10:40:30;;;;;;;;;6.00;5.20;;;;;;;;4922859;29;9040;-79
2021/08/15 10:42:57;;;;;;;;;12.60;11.40;;;;;;;;4961254;28;8946;-80
2021/08/15 10:45:26;;;;;;;;;16.40;16.40;;;;;;;;4983284;28;8903;-80
2021/08/15 10:48:23;;;;;;;;;9.20;9.20;;;;;;;;4966634;28;8956;-79
2021/08/15 10:50:52;;;;;;;;;10.20;10.20;;;;;;;;4978664;28;8915;-79
2021/08/15 10:53:47;;;;;;;;;8.60;8.60;;;;;;;;4984007;28;8877;-79
2021/08/15 10:56:15;;;;;;;;;17.20;17.20;;;;;;;;4984973;28;8951;-80
2021/08/15 10:58:50;;;;;;;;;4.00;3.00;;;;;;;;4971106;28;8911;-80
2021/08/15 11:01:19;;;;;;;;;5.00;5.00;;;;;;;;4981948;28;8785;-80
2021/08/15 11:03:55;;;;;;;;;4.20;4.20;;;;;;;;4984920;28;8914;-80
2021/08/15 11:06:45;;;;;;;;;11.80;11.80;;;;;;;;4965468;28;8994;-80
2021/08/15 11:09:14;;;;;;;;;6.00;6.00;;;;;;;;4984567;28;8868;-80
2021/08/15 11:12:08;;;;;;;;;7.20;5.60;;;;;;;;4984294;28;8914;-79
2021/08/15 11:14:35;;;;;;;;;9.60;9.60;;;;;;;;4983281;28;8903;-79
2021/08/15 11:17:15;;;;;;;;;8.80;8.80;;;;;;;;4984219;28;8903;-80
2021/08/15 11:19:42;;;;;;;;;8.00;7.60;;;;;;;;4983332;28;9187;-79
2021/08/15 11:22:19;;;;;;;;;6.00;6.00;;;;;;;;4966931;28;8880;-80
2021/08/15 11:25:10;;;;;;;;;6.80;6.80;;;;;;;;4985662;28;8939;-79
2021/08/15 11:27:40;;;;;;;;;7.20;7.20;;;;;;;;4985791;28;8956;-79
2021/08/15 11:30:12;;;;;;;;;9.40;7.80;;;;;;;;4987253;28;8979;-79
2021/08/15 11:32:40;;;;;;;;;9.60;6.20;;;;;;;;4969362;28;9854;-80
2021/08/15 11:35:10;;;;;;;;;9.60;9.60;;;;;;;;4987470;28;8886;-80
2021/08/15 11:37:38;;;;;;;;;4.00;4.00;;;;;;;;4986999;28;9012;-79
2021/08/15 11:40:30;;;;;;;;;6.40;6.40;;;;;;;;4987483;28;8869;-79
2021/08/15 11:42:59;;;;;;;;;8.00;8.00;;;;;;;;4988003;28;8921;-79
2021/08/15 11:45:32;;;;;;;;;11.20;9.00;;;;;;;;4986271;28;8910;-79
2021/08/15 11:48:10;;;;;;;;;9.00;9.00;;;;;;;;4987239;28;8922;-80
2021/08/15 11:50:38;;;;;;;;;9.60;9.60;;;;;;;;4969444;28;8881;-79
2021/08/15 11:53:14;;;;;;;;;10.00;10.00;;;;;;;;4969690;28;8881;-79
2021/08/15 11:55:43;;;;;;;;;10.80;9.20;;;;;;;;4987770;28;8892;-79
2021/08/15 11:58:11;;;;;;;;;11.40;11.40;;;;;;;;4968929;28;8869;-80
2021/08/15 12:00:38;;;;;;;;;10.00;8.00;;;;;;;;4986839;28;8829;-79
2021/08/15 12:03:08;;;;;;;;;8.80;8.00;;;;;;;;4985776;28;8959;-80
2021/08/15 12:05:38;;;;;;;;;8.80;8.00;;;;;;;;4986703;28;8987;-79
2021/08/15 12:08:07;;;;;;;;;8.60;8.60;;;;;;;;4987120;28;8853;-79
2021/08/15 12:10:40;;;;;;;;;9.40;9.40;;;;;;;;4986518;28;8889;-80
2021/08/15 12:13:18;;;;;;;;;12.40;11.80;;;;;;;;4987666;28;8864;-80
2021/08/15 12:15:46;;;;;;;;;7.00;7.00;;;;;;;;4979472;28;8873;-79
2021/08/15 12:18:31;;;;;;;;;9.20;9.20;;;;;;;;4987628;28;8900;-80
2021/08/15 12:21:00;;;;;;;;;53.60;44.00;;;;;;;;4986345;28;8919;-79
2021/08/15 12:23:28;;;;;;;;;102.75;98.25;;;;;;;;4987012;28;8869;-80
2021/08/15 12:26:07;;;;;;;;;56.60;44.80;;;;;;;;4969791;28;8865;-79
2021/08/15 12:28:38;;;;;;;;;64.40;53.80;;;;;;;;4985316;28;8853;-79
2021/08/15 12:31:20;;;;;;;;;47.60;40.00;;;;;;;;4968636;28;8834;-79
2021/08/15 12:33:48;;;;;;;;;91.00;87.50;;;;;;;;4985798;28;8900;-79
2021/08/15 12:36:23;;;;;;;;;117.25;113.50;;;;;;;;4985873;28;8892;-80
2021/08/15 12:39:02;;;;;;;;;19.00;18.80;;;;;;;;4986802;28;8861;-80
2021/08/15 12:41:30;;;;;;;;;28.80;26.40;;;;;;;;4985167;28;9674;-79
2021/08/15 12:44:10;;;;;;;;;21.40;20.80;;;;;;;;4986791;28;10335;-79
2021/08/15 12:46:37;;;;;;;;;6.80;6.80;;;;;;;;4985199;28;8913;-79
2021/08/15 12:49:22;;;;;;;;;13.60;11.60;;;;;;;;4986611;28;8889;-81
2021/08/15 12:51:50;;;;;;;;;13.80;13.80;;;;;;;;4968807;28;8865;-79
2021/08/15 12:54:18;;;;;;;;;10.20;10.20;;;;;;;;4985723;28;8938;-80
2021/08/15 12:56:45;;;;;;;;;9.20;9.20;;;;;;;;4986684;28;8869;-80
2021/08/15 12:59:14;;;;;;;;;9.20;7.40;;;;;;;;4985086;28;9059;-80
2021/08/15 13:01:41;;;;;;;;;8.00;7.80;;;;;;;;4985855;28;8809;-80
2021/08/15 13:04:08;;;;;;;;;5.60;5.60;;;;;;;;4967977;28;8951;-80
2021/08/15 13:06:36;;;;;;;;;9.80;8.20;;;;;;;;4986295;28;8869;-79
2021/08/15 13:09:05;;;;;;;;;6.80;6.80;;;;;;;;4986148;28;8957;-80
2021/08/15 13:11:33;;;;;;;;;10.60;8.60;;;;;;;;4985093;28;8877;-80
2021/08/15 13:14:00;;;;;;;;;5.80;5.60;;;;;;;;4986074;28;8845;-79
2021/08/15 13:16:29;;;;;;;;;7.40;6.00;;;;;;;;4966667;28;8939;-80
2021/08/15 13:18:56;;;;;;;;;6.80;5.00;;;;;;;;4968524;28;9832;-79
2021/08/15 13:21:24;;;;;;;;;4.60;4.60;;;;;;;;4966431;28;9014;-79
2021/08/15 13:23:51;;;;;;;;;8.00;4.00;;;;;;;;4985998;28;8979;-79
2021/08/15 13:26:19;;;;;;;;;5.00;5.00;;;;;;;;4986033;28;8872;-79
2021/08/15 13:28:46;;;;;;;;;4.00;4.00;;;;;;;;4967154;28;9651;-79
2021/08/15 13:31:13;;;;;;;;;5.00;5.00;;;;;;;;4985431;28;9584;-81
2021/08/15 13:33:42;;;;;;;;;5.20;3.40;;;;;;;;4984483;28;8960;-81
2021/08/15 13:36:10;;;;;;;;;3.00;3.00;;;;;;;;4968377;28;8889;-79
2021/08/15 13:38:38;;;;;;;;;6.20;4.00;;;;;;;;4984241;28;9754;-79
2021/08/15 13:41:05;;;;;;;;;6.80;5.00;;;;;;;;4985719;28;8877;-80
2021/08/15 13:43:35;;;;;;;;;1.00;1.00;;;;;;;;4985548;28;9019;-80
2021/08/15 13:46:03;;;;;;;;;4.40;4.00;;;;;;;;4984817;28;8898;-81
2021/08/15 13:48:30;;;;;;;;;4.00;4.00;;;;;;;;4984983;28;8877;-80
2021/08/15 13:50:59;;;;;;;;;4.40;4.40;;;;;;;;4984055;28;9011;-79
2021/08/15 13:53:26;;;;;;;;;3.00;3.00;;;;;;;;4985231;28;9584;-79
2021/08/15 13:55:53;;;;;;;;;3.60;3.00;;;;;;;;4984715;28;8885;-79
2021/08/15 13:58:21;;;;;;;;;5.00;5.00;;;;;;;;4967534;28;9706;-79
2021/08/15 14:00:50;;;;;;;;;2.00;2.00;;;;;;;;4949951;28;8916;-79
2021/08/15 14:03:17;;;;;;;;;3.80;3.80;;;;;;;;4984791;28;8901;-80
2021/08/15 14:05:45;;;;;;;;;3.20;3.00;;;;;;;;4985313;28;9006;-79
2021/08/15 14:08:14;;;;;;;;;5.00;3.00;;;;;;;;4983034;28;8891;-80
2021/08/15 14:10:43;;;;;;;;;3.00;3.00;;;;;;;;4967676;28;8888;-79
2021/08/15 14:13:11;;;;;;;;;3.20;2.00;;;;;;;;4984281;28;9773;-80
2021/08/15 14:15:38;;;;;;;;;4.40;4.40;;;;;;;;4984893;28;8873;-80
2021/08/15 14:18:05;;;;;;;;;3.00;3.00;;;;;;;;4984408;28;8869;-80
2021/08/15 14:20:34;;;;;;;;;3.40;3.40;;;;;;;;4984232;28;8884;-79
2021/08/15 14:23:01;;;;;;;;;4.00;4.00;;;;;;;;4985383;28;9655;-80
2021/08/15 14:25:30;;;;;;;;;4.00;4.00;;;;;;;;4984124;28;8901;-81
2021/08/15 14:27:57;;;;;;;;;3.80;3.80;;;;;;;;4984984;28;8865;-79
2021/08/15 14:30:25;;;;;;;;;2.60;2.60;;;;;;;;4982902;28;8879;-79
2021/08/15 14:32:52;;;;;;;;;4.40;3.00;;;;;;;;4984715;28;8857;-83
2021/08/15 14:35:20;;;;;;;;;3.80;3.80;;;;;;;;4983118;28;8857;-83
2021/08/15 14:37:47;;;;;;;;;4.00;4.00;;;;;;;;4966494;28;8891;-83
2021/08/15 14:40:16;;;;;;;;;4.00;2.20;;;;;;;;4981212;28;8869;-84
2021/08/15 14:42:46;;;;;;;;;3.00;3.00;;;;;;;;4983718;28;8869;-82
2021/08/15 14:45:13;;;;;;;;;4.00;4.00;;;;;;;;4980677;28;8880;-82
2021/08/15 14:47:41;;;;;;;;;4.00;4.00;;;;;;;;4983410;28;8881;-82
2021/08/15 14:50:10;;;;;;;;;4.20;4.20;;;;;;;;4984269;28;8918;-82
2021/08/15 14:52:37;;;;;;;;;4.60;4.00;;;;;;;;4963037;28;8861;-81
2021/08/15 14:55:05;;;;;;;;;5.00;4.00;;;;;;;;4984597;28;8906;-82
2021/08/15 14:57:32;;;;;;;;;3.00;3.00;;;;;;;;4966490;28;9702;-83
2021/08/15 15:00:01;;;;;;;;;1.80;1.80;;;;;;;;4985365;28;8887;-83
2021/08/15 15:02:29;;;;;;;;;5.00;3.20;;;;;;;;4986059;28;8832;-82
2021/08/15 15:04:56;;;;;;;;;3.40;3.40;;;;;;;;4969236;28;8885;-79
2021/08/15 15:07:24;;;;;;;;;4.00;4.00;;;;;;;;4988714;28;8865;-83
2021/08/15 15:09:52;;;;;;;;;4.40;4.40;;;;;;;;4987310;28;8959;-82
2021/08/15 15:12:19;;;;;;;;;2.00;2.00;;;;;;;;4988716;28;8931;-80
2021/08/15 15:14:46;;;;;;;;;3.00;3.00;;;;;;;;4987506;28;8873;-83
2021/08/15 15:17:15;;;;;;;;;5.00;5.00;;;;;;;;4988026;28;8912;-82
2021/08/15 15:19:42;;;;;;;;;4.20;3.60;;;;;;;;4987735;28;8870;-86
2021/08/15 15:22:10;;;;;;;;;5.40;5.40;;;;;;;;4985586;28;8884;-87
2021/08/15 15:24:37;;;;;;;;;4.80;4.80;;;;;;;;4988978;28;8873;-87
2021/08/15 15:27:05;;;;;;;;;3.00;3.00;;;;;;;;4986861;28;8897;-86
2021/08/15 15:29:32;;;;;;;;;4.00;4.00;;;;;;;;4988387;28;9019;-86
2021/08/15 15:32:00;;;;;;;;;6.00;4.60;;;;;;;;4987014;28;8829;-85
2021/08/15 15:34:28;;;;;;;;;5.80;3.80;;;;;;;;4987335;28;9647;-87
2021/08/15 15:36:56;;;;;;;;;3.80;3.80;;;;;;;;4987544;28;9764;-85
2021/08/15 15:39:37;;;;;;;;;4.40;4.00;;;;;;;;4987083;28;8877;-85
2021/08/15 15:42:06;;;;;;;;;5.80;5.00;;;;;;;;4987855;28;8905;-82
2021/08/15 15:44:34;;;;;;;;;5.60;4.00;;;;;;;;4986776;28;8897;-83
2021/08/15 15:47:02;;;;;;;;;3.00;3.00;;;;;;;;4988040;28;8873;-82
2021/08/15 15:49:31;;;;;;;;;4.00;4.00;;;;;;;;4987288;28;8975;-85
2021/08/15 15:51:59;;;;;;;;;4.00;4.00;;;;;;;;4970425;28;8868;-85
2021/08/15 15:54:26;;;;;;;;;5.00;5.00;;;;;;;;4987585;28;8871;-82
2021/08/15 15:56:53;;;;;;;;;3.60;3.60;;;;;;;;4986418;28;8980;-82
2021/08/15 15:59:20;;;;;;;;;5.00;5.00;;;;;;;;4970005;28;8895;-84
2021/08/15 16:01:48;;;;;;;;;3.80;3.80;;;;;;;;4985201;28;8875;-84
2021/08/15 16:04:15;;;;;;;;;5.60;5.60;;;;;;;;4970058;28;8877;-81
2021/08/15 16:06:44;;;;;;;;;6.80;5.60;;;;;;;;4984665;28;9013;-79
2021/08/15 16:09:12;;;;;;;;;6.20;6.20;;;;;;;;4987034;28;8877;-80
2021/08/15 16:11:39;;;;;;;;;7.40;6.40;;;;;;;;4986297;28;8885;-85
2021/08/15 16:14:07;;;;;;;;;4.20;4.20;;;;;;;;4986639;28;9459;-84
2021/08/15 16:16:35;;;;;;;;;5.80;4.60;;;;;;;;4987584;28;8895;-84
2021/08/15 16:19:03;;;;;;;;;6.00;6.00;;;;;;;;4986098;28;8897;-81
2021/08/15 16:21:30;;;;;;;;;6.00;6.00;;;;;;;;4974462;28;8967;-89
2021/08/15 16:23:58;;;;;;;;;5.00;5.00;;;;;;;;4986020;28;8912;-80
2021/08/15 16:26:26;;;;;;;;;9.80;6.20;;;;;;;;4986566;28;8857;-83
2021/08/15 16:28:53;;;;;;;;;9.00;7.00;;;;;;;;4985881;28;8983;-83
2021/08/15 16:31:21;;;;;;;;;4.20;4.20;;;;;;;;4985621;28;8813;-84
2021/08/15 16:33:48;;;;;;;;;6.20;6.00;;;;;;;;4986567;28;8967;-88
2021/08/15 16:36:15;;;;;;;;;6.40;6.40;;;;;;;;4985500;28;8950;-84
2021/08/15 16:38:43;;;;;;;;;7.20;7.20;;;;;;;;4968870;28;8992;-85
2021/08/15 16:41:12;;;;;;;;;8.60;7.40;;;;;;;;4982735;28;8872;-87
2021/08/15 16:43:39;;;;;;;;;6.00;6.00;;;;;;;;4969698;28;8869;-85
2021/08/15 16:46:07;;;;;;;;;6.60;6.60;;;;;;;;4984411;28;8893;-87
2021/08/15 16:48:34;;;;;;;;;11.00;9.40;;;;;;;;4986231;28;8869;-87